Thursday, October 30, 2014
23:00 UTC
  |  Log In   |  Register Free
Airport Search:

Faribault Municipal Airport
(KFBL)

Faribault Municipal Airport Diagram
No Airport Diagram Available

FAA data valid effective September 18, 2014 - November 13, 2014 (unless otherwise noted).

 
 
 
 
 
 
 
 
 
 
 
 
 
 

Current Aviation Weather for Faribault Municipal Airport (KFBL)

The most recent METAR observation for KFBL was updated at: 2212
METAR Summary (Translated METAR)
KFBL
302154Z AUTO 34007KT 10SM SCT044 BKN080 09/03 A3013 RMK AO2
KOWA
302155Z AUTO 34008KT 10SM SCT090 09/02 A3012 RMK AO2
(12.5 nm SE from KFBL)
KSYN
302153Z AUTO 33008KT 10SM SCT037 OVC045 10/03 A3011 RMK AO2 T00950027
(15.5 nm NE from KFBL)
TAF
No TAF information found within 50 nm of KFBL
  Airport Weather Conditions for KFBL

 Current Weather at FBL
48° F
Mostly Cloudy
North winds at 8.1 mph
FBL NOAA Radar

Pressure: 30.13 in
Humidity: 66%
Wind: North at 8.1 MPH (7 KT)
Dew Point: 37.4°F
Visibility: 10.00 mi


Airport Weather Forecast for KFBL

Translated METAR and TAF for KFBL
Translated METAR for KFBL (2255 UTC 30 October 2014)
found at http://aviationweather.gov/adds/metars/
 
METAR text: KFBL 302234Z AUTO 32010G16KT 10SM SCT033 OVC044 09/03 A3014 RMK AO2
Conditions at: KFBL (FARIBAULT MUNI , MN, US) observed 2234 UTC 30 October 2014
Temperature: 9.0°C (48°F)
Dewpoint: 3.0°C (37°F) [RH = 66%]
Pressure (altimeter): 30.14 inches Hg (1020.7 mb)
Winds: from the NW (320 degrees) at 12 MPH (10 knots; 5.2 m/s)
gusting to 18 MPH (16 knots; 8.3 m/s)
Visibility: 10 or more miles (16+ km)
Ceiling: 4400 feet AGL
Clouds: scattered clouds at 3300 feet AGL
overcast cloud deck at 4400 feet AGL
Weather: automated observation with no human augmentation;
there may or may not be significant weather present at this time
Translated TAF for KFBL

There is no translated TAF available for this airport

Find All Airport Services Find A Hotel Find A Rental Car Find A Golf Course Find A Restaurant $100 Hamburger



FBO's on the Field
FBO Company Facility Photos Services Transportation Aviation Fuel Prices: Prices include tax
Catering Weather Repair Courtesy Rental Type 100LL JetA JetA+ MOGAS 8087
 
Quality Aviation

This FBO has not yet been rated
FS:Independent
Last Updated: Oct-03
Login to update fuel prices
SS:
Contact Quality AviationMore FBO Information
 
Add another FBO Facility Photos Catering Weather Repair Courtesy Rental Type 100LL JetA JetA+ MOGAS 8087
Services Transportation Aviation Fuel Prices: Prices include tax


model-print
model-print
model-print
model-print